sensor_id;sensor_type;location;lat;lon;timestamp;P1;durP1;ratioP1;P2;durP2;ratioP2
55756;SDS011;41676;44.610;44.078;2024-03-08T00:04:10;30.10;;;11.52;;
55756;SDS011;41676;44.610;44.078;2024-03-08T00:09:11;15.57;;;8.52;;
55756;SDS011;41676;44.610;44.078;2024-03-08T00:14:14;14.65;;;7.68;;
55756;SDS011;41676;44.610;44.078;2024-03-08T00:19:16;16.40;;;8.25;;
55756;SDS011;41676;44.610;44.078;2024-03-08T00:24:17;12.73;;;8.13;;
55756;SDS011;41676;44.610;44.078;2024-03-08T00:29:18;11.48;;;7.55;;
55756;SDS011;41676;44.610;44.078;2024-03-08T00:34:19;13.65;;;8.35;;
55756;SDS011;41676;44.610;44.078;2024-03-08T00:39:20;12.32;;;7.35;;
55756;SDS011;41676;44.610;44.078;2024-03-08T00:44:21;16.83;;;7.10;;
55756;SDS011;41676;44.610;44.078;2024-03-08T00:49:22;14.65;;;8.63;;
55756;SDS011;41676;44.610;44.078;2024-03-08T00:54:23;15.00;;;9.20;;
55756;SDS011;41676;44.610;44.078;2024-03-08T00:59:24;14.57;;;8.38;;
55756;SDS011;41676;44.610;44.078;2024-03-08T01:04:24;17.65;;;10.05;;
55756;SDS011;41676;44.610;44.078;2024-03-08T01:09:26;12.27;;;7.75;;
55756;SDS011;41676;44.610;44.078;2024-03-08T01:14:27;9.82;;;5.88;;
55756;SDS011;41676;44.610;44.078;2024-03-08T01:19:30;11.40;;;7.20;;
55756;SDS011;41676;44.610;44.078;2024-03-08T01:24:32;10.35;;;6.68;;
55756;SDS011;41676;44.610;44.078;2024-03-08T01:29:35;11.25;;;5.35;;
55756;SDS011;41676;44.610;44.078;2024-03-08T01:34:35;11.38;;;6.90;;
55756;SDS011;41676;44.610;44.078;2024-03-08T01:39:36;8.52;;;5.65;;
55756;SDS011;41676;44.610;44.078;2024-03-08T01:44:38;11.02;;;6.32;;
55756;SDS011;41676;44.610;44.078;2024-03-08T01:49:39;10.52;;;6.20;;
55756;SDS011;41676;44.610;44.078;2024-03-08T01:54:41;10.18;;;6.03;;
55756;SDS011;41676;44.610;44.078;2024-03-08T01:59:42;10.90;;;6.70;;
55756;SDS011;41676;44.610;44.078;2024-03-08T02:04:44;11.80;;;6.30;;
55756;SDS011;41676;44.610;44.078;2024-03-08T02:09:45;10.15;;;6.43;;
55756;SDS011;41676;44.610;44.078;2024-03-08T02:14:46;10.93;;;6.63;;
55756;SDS011;41676;44.610;44.078;2024-03-08T02:19:47;8.77;;;5.88;;
55756;SDS011;41676;44.610;44.078;2024-03-08T02:24:48;8.48;;;6.03;;
55756;SDS011;41676;44.610;44.078;2024-03-08T02:29:49;10.20;;;6.40;;
55756;SDS011;41676;44.610;44.078;2024-03-08T02:34:50;10.00;;;5.85;;
55756;SDS011;41676;44.610;44.078;2024-03-08T02:39:51;9.57;;;6.15;;
55756;SDS011;41676;44.610;44.078;2024-03-08T02:44:52;8.63;;;5.72;;
55756;SDS011;41676;44.610;44.078;2024-03-08T02:49:52;9.40;;;5.93;;
55756;SDS011;41676;44.610;44.078;2024-03-08T02:54:53;14.00;;;6.97;;
55756;SDS011;41676;44.610;44.078;2024-03-08T02:59:54;12.18;;;6.32;;
55756;SDS011;41676;44.610;44.078;2024-03-08T03:04:55;17.50;;;9.20;;
55756;SDS011;41676;44.610;44.078;2024-03-08T03:09:56;13.98;;;7.68;;
55756;SDS011;41676;44.610;44.078;2024-03-08T03:14:57;34.88;;;14.23;;
55756;SDS011;41676;44.610;44.078;2024-03-08T03:19:58;38.72;;;18.15;;
55756;SDS011;41676;44.610;44.078;2024-03-08T03:24:58;36.70;;;17.90;;
55756;SDS011;41676;44.610;44.078;2024-03-08T03:30:03;15.77;;;8.25;;
55756;SDS011;41676;44.610;44.078;2024-03-08T03:35:21;17.42;;;8.82;;
55756;SDS011;41676;44.610;44.078;2024-03-08T03:40:22;9.05;;;5.30;;
55756;SDS011;41676;44.610;44.078;2024-03-08T03:45:25;8.63;;;5.53;;
55756;SDS011;41676;44.610;44.078;2024-03-08T03:50:26;8.10;;;4.85;;
55756;SDS011;41676;44.610;44.078;2024-03-08T03:55:27;9.27;;;6.38;;
55756;SDS011;41676;44.610;44.078;2024-03-08T04:00:28;10.15;;;6.18;;
55756;SDS011;41676;44.610;44.078;2024-03-08T04:05:29;10.02;;;6.25;;
55756;SDS011;41676;44.610;44.078;2024-03-08T04:10:31;9.50;;;5.75;;
55756;SDS011;41676;44.610;44.078;2024-03-08T04:15:31;9.93;;;6.03;;
55756;SDS011;41676;44.610;44.078;2024-03-08T04:20:32;8.25;;;4.43;;
55756;SDS011;41676;44.610;44.078;2024-03-08T04:25:33;16.63;;;6.95;;
55756;SDS011;41676;44.610;44.078;2024-03-08T04:30:34;9.05;;;6.22;;
55756;SDS011;41676;44.610;44.078;2024-03-08T04:35:37;9.48;;;6.00;;
55756;SDS011;41676;44.610;44.078;2024-03-08T04:40:37;11.07;;;6.00;;
55756;SDS011;41676;44.610;44.078;2024-03-08T04:45:38;10.75;;;6.45;;
55756;SDS011;41676;44.610;44.078;2024-03-08T04:50:39;9.23;;;5.47;;
55756;SDS011;41676;44.610;44.078;2024-03-08T04:55:40;8.25;;;5.28;;
55756;SDS011;41676;44.610;44.078;2024-03-08T05:00:41;7.90;;;4.93;;
55756;SDS011;41676;44.610;44.078;2024-03-08T05:05:42;9.45;;;6.47;;
55756;SDS011;41676;44.610;44.078;2024-03-08T05:10:42;9.90;;;5.85;;
55756;SDS011;41676;44.610;44.078;2024-03-08T05:15:43;11.07;;;6.15;;
55756;SDS011;41676;44.610;44.078;2024-03-08T05:20:44;8.45;;;5.50;;
55756;SDS011;41676;44.610;44.078;2024-03-08T05:25:45;8.93;;;5.63;;
55756;SDS011;41676;44.610;44.078;2024-03-08T05:35:50;12.18;;;5.88;;
55756;SDS011;41676;44.610;44.078;2024-03-08T05:40:52;10.07;;;6.25;;
55756;SDS011;41676;44.610;44.078;2024-03-08T05:45:52;10.98;;;5.47;;
55756;SDS011;41676;44.610;44.078;2024-03-08T05:50:53;10.65;;;5.72;;
55756;SDS011;41676;44.610;44.078;2024-03-08T05:55:54;8.35;;;5.55;;
55756;SDS011;41676;44.610;44.078;2024-03-08T06:00:55;7.55;;;4.97;;
55756;SDS011;41676;44.610;44.078;2024-03-08T06:05:56;7.65;;;4.30;;
55756;SDS011;41676;44.610;44.078;2024-03-08T06:10:57;8.40;;;5.38;;
55756;SDS011;41676;44.610;44.078;2024-03-08T06:15:59;7.05;;;4.93;;
55756;SDS011;41676;44.610;44.078;2024-03-08T06:21:01;8.55;;;5.63;;
55756;SDS011;41676;44.610;44.078;2024-03-08T06:26:02;9.13;;;5.22;;
55756;SDS011;41676;44.610;44.078;2024-03-08T06:31:03;7.97;;;5.50;;
55756;SDS011;41676;44.610;44.078;2024-03-08T06:36:04;9.25;;;5.28;;
55756;SDS011;41676;44.610;44.078;2024-03-08T06:41:05;7.60;;;5.07;;
55756;SDS011;41676;44.610;44.078;2024-03-08T06:46:06;13.55;;;7.72;;
55756;SDS011;41676;44.610;44.078;2024-03-08T06:51:07;9.98;;;6.50;;
55756;SDS011;41676;44.610;44.078;2024-03-08T06:56:08;8.13;;;5.55;;
55756;SDS011;41676;44.610;44.078;2024-03-08T07:01:09;7.18;;;4.80;;
55756;SDS011;41676;44.610;44.078;2024-03-08T07:06:14;8.20;;;5.40;;
55756;SDS011;41676;44.610;44.078;2024-03-08T07:11:14;8.13;;;5.40;;
55756;SDS011;41676;44.610;44.078;2024-03-08T07:16:18;7.70;;;5.28;;
55756;SDS011;41676;44.610;44.078;2024-03-08T07:21:19;8.13;;;5.50;;
55756;SDS011;41676;44.610;44.078;2024-03-08T07:26:20;7.18;;;4.95;;
55756;SDS011;41676;44.610;44.078;2024-03-08T07:31:21;9.77;;;5.55;;
55756;SDS011;41676;44.610;44.078;2024-03-08T07:36:31;11.90;;;6.10;;
55756;SDS011;41676;44.610;44.078;2024-03-08T07:41:34;9.82;;;5.70;;
55756;SDS011;41676;44.610;44.078;2024-03-08T07:46:36;8.15;;;5.85;;
55756;SDS011;41676;44.610;44.078;2024-03-08T07:51:37;10.00;;;5.78;;
55756;SDS011;41676;44.610;44.078;2024-03-08T07:56:38;6.88;;;4.82;;
55756;SDS011;41676;44.610;44.078;2024-03-08T08:01:39;11.68;;;5.75;;
55756;SDS011;41676;44.610;44.078;2024-03-08T08:06:40;9.57;;;5.88;;
55756;SDS011;41676;44.610;44.078;2024-03-08T08:11:43;9.70;;;6.43;;
55756;SDS011;41676;44.610;44.078;2024-03-08T08:16:44;23.60;;;5.70;;
55756;SDS011;41676;44.610;44.078;2024-03-08T08:21:45;6.30;;;4.20;;
55756;SDS011;41676;44.610;44.078;2024-03-08T08:26:46;7.45;;;5.43;;
55756;SDS011;41676;44.610;44.078;2024-03-08T08:31:47;15.20;;;6.35;;
55756;SDS011;41676;44.610;44.078;2024-03-08T08:36:48;9.60;;;5.88;;
55756;SDS011;41676;44.610;44.078;2024-03-08T08:41:48;9.07;;;6.78;;
55756;SDS011;41676;44.610;44.078;2024-03-08T08:46:49;13.57;;;8.25;;
55756;SDS011;41676;44.610;44.078;2024-03-08T08:51:50;11.93;;;6.65;;
55756;SDS011;41676;44.610;44.078;2024-03-08T08:56:51;9.43;;;6.07;;
55756;SDS011;41676;44.610;44.078;2024-03-08T09:01:51;9.25;;;7.18;;
55756;SDS011;41676;44.610;44.078;2024-03-08T09:06:54;10.90;;;8.50;;
55756;SDS011;41676;44.610;44.078;2024-03-08T09:11:55;19.90;;;9.05;;
55756;SDS011;41676;44.610;44.078;2024-03-08T09:16:56;9.63;;;8.02;;
55756;SDS011;41676;44.610;44.078;2024-03-08T09:21:57;14.32;;;10.50;;
55756;SDS011;41676;44.610;44.078;2024-03-08T09:26:58;13.07;;;9.50;;
55756;SDS011;41676;44.610;44.078;2024-03-08T09:31:59;12.32;;;9.60;;
55756;SDS011;41676;44.610;44.078;2024-03-08T09:36:59;11.32;;;9.20;;
55756;SDS011;41676;44.610;44.078;2024-03-08T09:42:03;12.23;;;9.50;;
55756;SDS011;41676;44.610;44.078;2024-03-08T09:47:05;12.50;;;9.45;;
55756;SDS011;41676;44.610;44.078;2024-03-08T09:52:07;17.45;;;9.77;;
55756;SDS011;41676;44.610;44.078;2024-03-08T09:57:08;13.52;;;10.20;;
55756;SDS011;41676;44.610;44.078;2024-03-08T10:02:12;12.85;;;10.00;;
55756;SDS011;41676;44.610;44.078;2024-03-08T10:07:15;15.95;;;9.77;;
55756;SDS011;41676;44.610;44.078;2024-03-08T10:12:16;12.60;;;9.13;;
55756;SDS011;41676;44.610;44.078;2024-03-08T10:17:19;12.35;;;10.18;;
55756;SDS011;41676;44.610;44.078;2024-03-08T10:22:20;15.02;;;11.60;;
55756;SDS011;41676;44.610;44.078;2024-03-08T10:27:21;12.73;;;10.38;;
55756;SDS011;41676;44.610;44.078;2024-03-08T10:32:22;14.13;;;10.82;;
55756;SDS011;41676;44.610;44.078;2024-03-08T10:37:24;17.52;;;11.32;;
55756;SDS011;41676;44.610;44.078;2024-03-08T10:42:28;12.18;;;10.15;;
55756;SDS011;41676;44.610;44.078;2024-03-08T10:47:32;13.73;;;11.48;;
55756;SDS011;41676;44.610;44.078;2024-03-08T10:52:37;13.18;;;10.68;;
55756;SDS011;41676;44.610;44.078;2024-03-08T10:57:39;15.35;;;11.60;;
55756;SDS011;41676;44.610;44.078;2024-03-08T11:02:45;13.65;;;11.27;;
55756;SDS011;41676;44.610;44.078;2024-03-08T11:07:46;12.20;;;9.68;;
55756;SDS011;41676;44.610;44.078;2024-03-08T11:12:48;12.85;;;10.00;;
55756;SDS011;41676;44.610;44.078;2024-03-08T11:17:49;11.90;;;9.70;;
55756;SDS011;41676;44.610;44.078;2024-03-08T11:22:51;12.35;;;8.40;;
55756;SDS011;41676;44.610;44.078;2024-03-08T11:28:06;13.90;;;10.13;;
55756;SDS011;41676;44.610;44.078;2024-03-08T11:33:27;10.77;;;9.23;;
55756;SDS011;41676;44.610;44.078;2024-03-08T11:38:31;12.50;;;10.23;;
55756;SDS011;41676;44.610;44.078;2024-03-08T11:43:33;10.32;;;8.15;;
55756;SDS011;41676;44.610;44.078;2024-03-08T11:48:35;14.82;;;9.07;;
55756;SDS011;41676;44.610;44.078;2024-03-08T11:53:36;7.95;;;6.55;;
55756;SDS011;41676;44.610;44.078;2024-03-08T11:58:37;11.52;;;7.22;;
55756;SDS011;41676;44.610;44.078;2024-03-08T12:03:40;12.75;;;8.80;;
55756;SDS011;41676;44.610;44.078;2024-03-08T12:08:45;12.65;;;6.65;;
55756;SDS011;41676;44.610;44.078;2024-03-08T12:13:49;9.35;;;6.65;;
55756;SDS011;41676;44.610;44.078;2024-03-08T12:18:54;11.30;;;6.65;;
55756;SDS011;41676;44.610;44.078;2024-03-08T12:29:19;8.13;;;5.87;;
55756;SDS011;41676;44.610;44.078;2024-03-08T12:34:27;14.70;;;5.22;;
55756;SDS011;41676;44.610;44.078;2024-03-08T12:39:29;12.60;;;7.70;;
55756;SDS011;41676;44.610;44.078;2024-03-08T12:44:30;11.68;;;5.95;;
55756;SDS011;41676;44.610;44.078;2024-03-08T12:49:31;12.45;;;6.50;;
55756;SDS011;41676;44.610;44.078;2024-03-08T12:54:32;9.30;;;5.72;;
55756;SDS011;41676;44.610;44.078;2024-03-08T12:59:33;14.13;;;6.35;;
55756;SDS011;41676;44.610;44.078;2024-03-08T13:04:34;16.48;;;5.53;;
55756;SDS011;41676;44.610;44.078;2024-03-08T13:09:36;8.85;;;6.28;;
55756;SDS011;41676;44.610;44.078;2024-03-08T13:14:37;11.60;;;6.13;;
55756;SDS011;41676;44.610;44.078;2024-03-08T13:19:41;9.27;;;6.10;;
55756;SDS011;41676;44.610;44.078;2024-03-08T13:24:44;9.55;;;5.65;;
55756;SDS011;41676;44.610;44.078;2024-03-08T13:29:46;10.30;;;6.05;;
55756;SDS011;41676;44.610;44.078;2024-03-08T13:34:48;11.18;;;6.10;;
55756;SDS011;41676;44.610;44.078;2024-03-08T13:39:51;9.07;;;6.07;;
55756;SDS011;41676;44.610;44.078;2024-03-08T13:44:53;12.55;;;7.07;;
55756;SDS011;41676;44.610;44.078;2024-03-08T13:49:54;8.68;;;6.07;;
55756;SDS011;41676;44.610;44.078;2024-03-08T13:54:55;20.05;;;7.60;;
55756;SDS011;41676;44.610;44.078;2024-03-08T13:59:56;11.70;;;6.70;;
55756;SDS011;41676;44.610;44.078;2024-03-08T14:04:56;11.95;;;7.10;;
55756;SDS011;41676;44.610;44.078;2024-03-08T14:09:57;18.70;;;6.53;;
55756;SDS011;41676;44.610;44.078;2024-03-08T14:14:59;12.85;;;8.65;;
55756;SDS011;41676;44.610;44.078;2024-03-08T14:20:00;10.38;;;7.65;;
55756;SDS011;41676;44.610;44.078;2024-03-08T14:25:00;10.77;;;7.55;;
55756;SDS011;41676;44.610;44.078;2024-03-08T14:30:02;19.17;;;7.88;;
55756;SDS011;41676;44.610;44.078;2024-03-08T14:35:04;11.77;;;7.57;;
55756;SDS011;41676;44.610;44.078;2024-03-08T14:40:06;17.33;;;8.05;;
55756;SDS011;41676;44.610;44.078;2024-03-08T14:45:09;11.07;;;7.28;;
55756;SDS011;41676;44.610;44.078;2024-03-08T14:50:10;13.20;;;7.68;;
55756;SDS011;41676;44.610;44.078;2024-03-08T14:55:12;13.05;;;7.72;;
55756;SDS011;41676;44.610;44.078;2024-03-08T15:00:14;12.30;;;7.78;;
55756;SDS011;41676;44.610;44.078;2024-03-08T15:05:34;15.50;;;7.93;;
55756;SDS011;41676;44.610;44.078;2024-03-08T15:10:38;13.07;;;8.00;;
55756;SDS011;41676;44.610;44.078;2024-03-08T15:15:40;14.05;;;7.45;;
55756;SDS011;41676;44.610;44.078;2024-03-08T15:20:43;10.77;;;8.43;;
55756;SDS011;41676;44.610;44.078;2024-03-08T15:25:45;10.02;;;7.45;;
55756;SDS011;41676;44.610;44.078;2024-03-08T15:30:49;10.95;;;8.43;;
55756;SDS011;41676;44.610;44.078;2024-03-08T15:35:55;12.52;;;9.27;;
55756;SDS011;41676;44.610;44.078;2024-03-08T15:41:01;15.80;;;9.82;;
55756;SDS011;41676;44.610;44.078;2024-03-08T15:46:01;16.17;;;9.90;;
55756;SDS011;41676;44.610;44.078;2024-03-08T15:51:04;13.30;;;8.90;;
55756;SDS011;41676;44.610;44.078;2024-03-08T15:56:06;13.35;;;8.80;;
55756;SDS011;41676;44.610;44.078;2024-03-08T16:01:10;22.13;;;13.40;;
55756;SDS011;41676;44.610;44.078;2024-03-08T16:06:14;14.27;;;9.93;;
55756;SDS011;41676;44.610;44.078;2024-03-08T16:11:16;12.20;;;8.82;;
55756;SDS011;41676;44.610;44.078;2024-03-08T16:16:18;11.75;;;8.80;;
55756;SDS011;41676;44.610;44.078;2024-03-08T16:21:20;12.50;;;8.90;;
55756;SDS011;41676;44.610;44.078;2024-03-08T16:26:20;12.30;;;9.27;;
55756;SDS011;41676;44.610;44.078;2024-03-08T16:31:24;12.50;;;9.60;;
55756;SDS011;41676;44.610;44.078;2024-03-08T16:36:25;12.85;;;8.73;;
55756;SDS011;41676;44.610;44.078;2024-03-08T16:41:27;25.05;;;13.57;;
55756;SDS011;41676;44.610;44.078;2024-03-08T16:46:29;15.75;;;10.85;;
55756;SDS011;41676;44.610;44.078;2024-03-08T16:51:32;14.75;;;10.50;;
55756;SDS011;41676;44.610;44.078;2024-03-08T16:56:33;17.42;;;11.45;;
55756;SDS011;41676;44.610;44.078;2024-03-08T17:01:38;16.88;;;11.25;;
55756;SDS011;41676;44.610;44.078;2024-03-08T17:06:39;12.80;;;9.75;;
55756;SDS011;41676;44.610;44.078;2024-03-08T17:11:39;13.60;;;10.18;;
55756;SDS011;41676;44.610;44.078;2024-03-08T17:16:41;17.25;;;11.30;;
55756;SDS011;41676;44.610;44.078;2024-03-08T17:21:42;19.02;;;11.13;;
55756;SDS011;41676;44.610;44.078;2024-03-08T17:26:43;14.32;;;9.50;;
55756;SDS011;41676;44.610;44.078;2024-03-08T17:31:45;13.00;;;9.43;;
55756;SDS011;41676;44.610;44.078;2024-03-08T17:36:47;16.77;;;9.33;;
55756;SDS011;41676;44.610;44.078;2024-03-08T17:41:52;12.15;;;9.15;;
55756;SDS011;41676;44.610;44.078;2024-03-08T17:46:54;16.00;;;10.40;;
55756;SDS011;41676;44.610;44.078;2024-03-08T17:51:54;12.85;;;9.18;;
55756;SDS011;41676;44.610;44.078;2024-03-08T17:56:57;11.45;;;8.43;;
55756;SDS011;41676;44.610;44.078;2024-03-08T18:02:00;11.90;;;8.88;;
55756;SDS011;41676;44.610;44.078;2024-03-08T18:07:00;12.77;;;8.82;;
55756;SDS011;41676;44.610;44.078;2024-03-08T18:12:01;11.68;;;9.07;;
55756;SDS011;41676;44.610;44.078;2024-03-08T18:17:02;10.60;;;8.57;;
55756;SDS011;41676;44.610;44.078;2024-03-08T18:22:05;11.07;;;8.43;;
55756;SDS011;41676;44.610;44.078;2024-03-08T18:27:06;12.13;;;8.65;;
55756;SDS011;41676;44.610;44.078;2024-03-08T18:32:09;10.20;;;7.97;;
55756;SDS011;41676;44.610;44.078;2024-03-08T18:37:10;10.23;;;8.68;;
55756;SDS011;41676;44.610;44.078;2024-03-08T18:42:13;15.27;;;8.60;;
55756;SDS011;41676;44.610;44.078;2024-03-08T18:47:13;10.48;;;8.05;;
55756;SDS011;41676;44.610;44.078;2024-03-08T18:52:14;12.38;;;8.07;;
55756;SDS011;41676;44.610;44.078;2024-03-08T18:57:17;12.68;;;8.60;;
55756;SDS011;41676;44.610;44.078;2024-03-08T19:02:18;11.98;;;8.13;;
55756;SDS011;41676;44.610;44.078;2024-03-08T19:07:22;12.70;;;9.43;;
55756;SDS011;41676;44.610;44.078;2024-03-08T19:12:22;11.43;;;9.40;;
55756;SDS011;41676;44.610;44.078;2024-03-08T19:17:24;10.98;;;8.65;;
55756;SDS011;41676;44.610;44.078;2024-03-08T19:22:25;11.80;;;8.93;;
55756;SDS011;41676;44.610;44.078;2024-03-08T19:27:28;11.40;;;9.15;;
55756;SDS011;41676;44.610;44.078;2024-03-08T19:32:29;11.30;;;8.82;;
55756;SDS011;41676;44.610;44.078;2024-03-08T19:37:30;16.02;;;9.00;;
55756;SDS011;41676;44.610;44.078;2024-03-08T19:42:31;12.48;;;9.50;;
55756;SDS011;41676;44.610;44.078;2024-03-08T19:47:31;21.95;;;14.55;;
55756;SDS011;41676;44.610;44.078;2024-03-08T19:52:32;15.82;;;11.77;;
55756;SDS011;41676;44.610;44.078;2024-03-08T19:57:34;17.40;;;10.93;;
55756;SDS011;41676;44.610;44.078;2024-03-08T20:02:35;18.02;;;11.48;;
55756;SDS011;41676;44.610;44.078;2024-03-08T20:07:36;16.60;;;11.45;;
55756;SDS011;41676;44.610;44.078;2024-03-08T20:12:37;16.45;;;11.32;;
55756;SDS011;41676;44.610;44.078;2024-03-08T20:17:40;13.93;;;10.60;;
55756;SDS011;41676;44.610;44.078;2024-03-08T20:22:42;17.35;;;10.50;;
55756;SDS011;41676;44.610;44.078;2024-03-08T20:27:53;16.83;;;11.30;;
55756;SDS011;41676;44.610;44.078;2024-03-08T20:33:02;16.02;;;11.10;;
55756;SDS011;41676;44.610;44.078;2024-03-08T20:38:04;18.65;;;12.10;;
55756;SDS011;41676;44.610;44.078;2024-03-08T20:43:10;14.48;;;10.73;;
55756;SDS011;41676;44.610;44.078;2024-03-08T20:48:11;20.23;;;10.35;;
55756;SDS011;41676;44.610;44.078;2024-03-08T20:53:14;13.27;;;8.60;;
55756;SDS011;41676;44.610;44.078;2024-03-08T20:58:15;12.77;;;9.02;;
55756;SDS011;41676;44.610;44.078;2024-03-08T21:03:16;23.00;;;8.65;;
55756;SDS011;41676;44.610;44.078;2024-03-08T21:08:19;13.52;;;9.15;;
55756;SDS011;41676;44.610;44.078;2024-03-08T21:13:29;14.23;;;10.10;;
55756;SDS011;41676;44.610;44.078;2024-03-08T21:18:30;13.35;;;10.25;;
55756;SDS011;41676;44.610;44.078;2024-03-08T21:23:31;13.38;;;9.85;;
55756;SDS011;41676;44.610;44.078;2024-03-08T21:28:32;16.80;;;9.48;;
55756;SDS011;41676;44.610;44.078;2024-03-08T21:33:34;19.33;;;9.73;;
55756;SDS011;41676;44.610;44.078;2024-03-08T21:38:36;16.65;;;9.98;;
55756;SDS011;41676;44.610;44.078;2024-03-08T21:43:37;15.43;;;9.52;;
55756;SDS011;41676;44.610;44.078;2024-03-08T21:48:38;17.17;;;9.48;;
55756;SDS011;41676;44.610;44.078;2024-03-08T21:53:39;16.95;;;11.73;;
55756;SDS011;41676;44.610;44.078;2024-03-08T21:58:40;20.38;;;11.18;;
55756;SDS011;41676;44.610;44.078;2024-03-08T22:03:42;17.23;;;10.82;;
55756;SDS011;41676;44.610;44.078;2024-03-08T22:08:43;13.35;;;10.63;;
55756;SDS011;41676;44.610;44.078;2024-03-08T22:13:44;20.98;;;10.48;;
55756;SDS011;41676;44.610;44.078;2024-03-08T22:18:48;13.90;;;10.25;;
55756;SDS011;41676;44.610;44.078;2024-03-08T22:23:49;13.05;;;9.95;;
55756;SDS011;41676;44.610;44.078;2024-03-08T22:28:49;13.05;;;9.88;;
55756;SDS011;41676;44.610;44.078;2024-03-08T22:33:53;12.60;;;9.40;;
55756;SDS011;41676;44.610;44.078;2024-03-08T22:38:55;15.80;;;10.20;;
55756;SDS011;41676;44.610;44.078;2024-03-08T22:43:56;19.73;;;10.43;;
55756;SDS011;41676;44.610;44.078;2024-03-08T22:48:57;14.80;;;10.40;;
55756;SDS011;41676;44.610;44.078;2024-03-08T22:53:57;16.27;;;10.73;;
55756;SDS011;41676;44.610;44.078;2024-03-08T22:58:58;15.93;;;10.82;;
55756;SDS011;41676;44.610;44.078;2024-03-08T23:04:00;15.75;;;9.70;;
55756;SDS011;41676;44.610;44.078;2024-03-08T23:09:01;13.40;;;9.30;;
55756;SDS011;41676;44.610;44.078;2024-03-08T23:14:04;14.93;;;9.55;;
55756;SDS011;41676;44.610;44.078;2024-03-08T23:19:06;12.77;;;9.15;;
55756;SDS011;41676;44.610;44.078;2024-03-08T23:24:07;11.88;;;8.57;;
55756;SDS011;41676;44.610;44.078;2024-03-08T23:29:11;14.90;;;9.57;;
55756;SDS011;41676;44.610;44.078;2024-03-08T23:34:11;17.23;;;9.82;;
55756;SDS011;41676;44.610;44.078;2024-03-08T23:39:12;13.55;;;8.32;;
55756;SDS011;41676;44.610;44.078;2024-03-08T23:44:15;15.52;;;8.25;;
55756;SDS011;41676;44.610;44.078;2024-03-08T23:49:17;14.05;;;9.48;;
55756;SDS011;41676;44.610;44.078;2024-03-08T23:54:18;17.25;;;9.32;;
55756;SDS011;41676;44.610;44.078;2024-03-08T23:59:22;18.83;;;9.55;;
